^^
Datos históricos de la estación: Murcia-Puente Tocinos
Diario Informe para Marzo 1, 2019 Unidades:  Ambas    Inglés   Métrico
Diario Semanal Mensual Anual Configurable
  Máximo: Mínimo: Media:
Temperatura: 74.3 °F /  23.5 °C 46.6 °F /  8.1 °C 59 °F /  15 °C
Punto de rocio: 51.3 °F /  10.7 °C 35.8 °F /  2.1 °C 41.9 °F /  5.5 °C
Humedad: 81% 27% 55%
Velocidad viento: 9.2mph /  14.8km/h - 3.3mph /  5.3km/h
Racha viento: 13.8mph /  22.2km/h - -
Viento- - South
Presión: 30.2 in /  1023.6 hPa 30.1 in /  1018.8 hPa -
Precipitación: 0 in /  0.0 mm    
Historical Graphs
 
 
Tabla de datos para Marzo 1, 2019
Hora Temperatura Punto de rocio Presión Viento Velocidad viento Racha viento Humedad Intensidad lluvia(por hora) Nubes
00:04 57.7 °F /  14.3 °C 43.5 °F /  6.4 °C 30.2in /  1023.6hPa SSE 2mph /  3.2km/h 2.3mph /  3.7km/h 59% 0in /  0.0mm CLR
00:09 57.6 °F /  14.2 °C 43.9 °F /  6.6 °C 30.2in /  1023.6hPa SSE 1.8mph /  2.9km/h 3.5mph /  5.6km/h 60% 0in /  0.0mm CLR
00:14 57.6 °F /  14.2 °C 43 °F /  6.1 °C 30.2in /  1023.6hPa SSE 1.8mph /  2.9km/h 3.5mph /  5.6km/h 58% 0in /  0.0mm CLR
00:19 57.6 °F /  14.2 °C 42.4 °F /  5.8 °C 30.2in /  1023.3hPa SSE 2mph /  3.2km/h 6.2mph /  10.0km/h 57% 0in /  0.0mm CLR
00:24 57.6 °F /  14.2 °C 42.1 °F /  5.6 °C 30.2in /  1023.3hPa SSE 2mph /  3.2km/h 4.6mph /  7.4km/h 56% 0in /  0.0mm CLR
00:29 57.6 °F /  14.2 °C 41.5 °F /  5.3 °C 30.2in /  1023.3hPa South 3.6mph /  5.8km/h 4.6mph /  7.4km/h 55% 0in /  0.0mm CLR
00:34 57.4 °F /  14.1 °C 41.7 °F /  5.4 °C 30.2in /  1023.2hPa South 3.6mph /  5.8km/h 4.6mph /  7.4km/h 56% 0in /  0.0mm CLR
00:39 57.4 °F /  14.1 °C 41.7 °F /  5.4 °C 30.2in /  1023.2hPa South 2.9mph /  4.7km/h 4.6mph /  7.4km/h 56% 0in /  0.0mm CLR
00:44 57.2 °F /  14.0 °C 42.1 °F /  5.6 °C 30.2in /  1023.2hPa South 2.9mph /  4.7km/h 3.5mph /  5.6km/h 57% 0in /  0.0mm CLR
00:49 57 °F /  13.9 °C 41.9 °F /  5.5 °C 30.2in /  1023.2hPa South 2.4mph /  3.9km/h 2.4mph /  3.9km/h 57% 0in /  0.0mm CLR
00:54 56.7 °F /  13.7 °C 41.5 °F /  5.3 °C 30.2in /  1023.2hPa South 2.4mph /  3.9km/h 2.3mph /  3.7km/h 57% 0in /  0.0mm CLR
00:59 56.5 °F /  13.6 °C 41.4 °F /  5.2 °C 30.2in /  1023.2hPa South 1.8mph /  2.9km/h 2.3mph /  3.7km/h 57% 0in /  0.0mm CLR
01:04 56.3 °F /  13.5 °C 41.7 °F /  5.4 °C 30.2in /  1023.1hPa South 1.8mph /  2.9km/h   58% 0in /  0.0mm CLR
01:09 56.1 °F /  13.4 °C 42.4 °F /  5.8 °C 30.2in /  1023.1hPa Calm     60% 0in /  0.0mm CLR
01:14 55.8 °F /  13.2 °C 42.4 °F /  5.8 °C 30.2in /  1023.1hPa Calm   2.3mph /  3.7km/h 61% 0in /  0.0mm CLR
01:19 55.4 °F /  13.0 °C 43 °F /  6.1 °C 30.2in /  1023.0hPa Calm     63% 0in /  0.0mm CLR
01:24 55 °F /  12.8 °C 43.2 °F /  6.2 °C 30.2in /  1023.0hPa Calm     64% 0in /  0.0mm CLR
01:29 54.9 °F /  12.7 °C 43 °F /  6.1 °C 30.2in /  1023.0hPa Calm     64% 0in /  0.0mm CLR
01:34 54.7 °F /  12.6 °C 43.2 °F /  6.2 °C 30.2in /  1022.9hPa Calm     65% 0in /  0.0mm CLR
01:39 54.7 °F /  12.6 °C 43.2 °F /  6.2 °C 30.2in /  1022.9hPa Calm     65% 0in /  0.0mm CLR
01:44 54.3 °F /  12.4 °C 42.8 °F /  6.0 °C 30.2in /  1022.9hPa Calm     65% 0in /  0.0mm CLR
01:49 54.3 °F /  12.4 °C 42.8 °F /  6.0 °C 30.2in /  1023.0hPa Calm     65% 0in /  0.0mm CLR
01:54 54.3 °F /  12.4 °C 41.5 °F /  5.3 °C 30.2in /  1023.0hPa Calm   3.5mph /  5.6km/h 62% 0in /  0.0mm CLR
01:59 54.1 °F /  12.3 °C 41 °F /  5.0 °C 30.2in /  1023.0hPa South 1.8mph /  2.9km/h 4.6mph /  7.4km/h 61% 0in /  0.0mm CLR
02:04 54.1 °F /  12.3 °C 41 °F /  5.0 °C 30.2in /  1022.9hPa SSE 1.8mph /  2.9km/h 5.8mph /  9.3km/h 61% 0in /  0.0mm CLR
02:09 54 °F /  12.2 °C 40.8 °F /  4.9 °C 30.2in /  1022.9hPa SSE 3.6mph /  5.8km/h 3.5mph /  5.6km/h 61% 0in /  0.0mm CLR
02:14 53.8 °F /  12.1 °C 40.6 °F /  4.8 °C 30.2in /  1022.9hPa SSE 3.6mph /  5.8km/h 4.6mph /  7.4km/h 61% 0in /  0.0mm CLR
02:19 53.4 °F /  11.9 °C 40.3 °F /  4.6 °C 30.2in /  1022.7hPa SE 2.9mph /  4.7km/h 4.7mph /  7.6km/h 61% 0in /  0.0mm CLR
02:24 53.1 °F /  11.7 °C 39.6 °F /  4.2 °C 30.2in /  1022.7hPa SSE 2.9mph /  4.7km/h 5.8mph /  9.3km/h 60% 0in /  0.0mm CLR
02:29 52.7 °F /  11.5 °C 39.6 °F /  4.2 °C 30.2in /  1022.7hPa SSE 4mph /  6.4km/h 5.8mph /  9.3km/h 61% 0in /  0.0mm CLR
02:34 52.5 °F /  11.4 °C 39.6 °F /  4.2 °C 30.2in /  1022.7hPa SSE 4mph /  6.4km/h 3.5mph /  5.6km/h 61% 0in /  0.0mm CLR
02:39 52.5 °F /  11.4 °C 39 °F /  3.9 °C 30.2in /  1022.7hPa SSE 3.1mph /  5.0km/h 3.6mph /  5.8km/h 60% 0in /  0.0mm CLR
02:44 52.5 °F /  11.4 °C 39.6 °F /  4.2 °C 30.2in /  1022.7hPa SSE 3.1mph /  5.0km/h 2.9mph /  4.7km/h 61% 0in /  0.0mm CLR
02:49 52.5 °F /  11.4 °C 39 °F /  3.9 °C 30.2in /  1022.7hPa SSE 2.4mph /  3.9km/h 4.6mph /  7.4km/h 60% 0in /  0.0mm CLR
02:54 52.5 °F /  11.4 °C 38.7 °F /  3.7 °C 30.2in /  1022.7hPa SSE 2.4mph /  3.9km/h 5.8mph /  9.3km/h 59% 0in /  0.0mm CLR
02:59 52.7 °F /  11.5 °C 38.8 °F /  3.8 °C 30.2in /  1022.7hPa South 3.6mph /  5.8km/h 5.8mph /  9.3km/h 59% 0in /  0.0mm CLR
03:04 52.9 °F /  11.6 °C 38.1 °F /  3.4 °C 30.2in /  1022.5hPa SSW 3.6mph /  5.8km/h 5.8mph /  9.3km/h 57% 0in /  0.0mm CLR
03:09 53.1 °F /  11.7 °C 38.1 °F /  3.4 °C 30.2in /  1022.5hPa SSW 4mph /  6.4km/h 5.8mph /  9.3km/h 57% 0in /  0.0mm CLR
03:14 53.1 °F /  11.7 °C 37.8 °F /  3.2 °C 30.2in /  1022.5hPa SSW 4mph /  6.4km/h 4.6mph /  7.4km/h 56% 0in /  0.0mm CLR
03:19 53.1 °F /  11.7 °C 37.2 °F /  2.9 °C 30.2in /  1022.4hPa SSW 2.9mph /  4.7km/h 4.6mph /  7.4km/h 55% 0in /  0.0mm CLR
03:24 53.1 °F /  11.7 °C 37.2 °F /  2.9 °C 30.2in /  1022.4hPa SSW 2.9mph /  4.7km/h 4.6mph /  7.4km/h 55% 0in /  0.0mm CLR
03:29 53.1 °F /  11.7 °C 37.2 °F /  2.9 °C 30.2in /  1022.4hPa SSW 3.1mph /  5.0km/h 4.6mph /  7.4km/h 55% 0in /  0.0mm CLR
03:34 53.1 °F /  11.7 °C 36.9 °F /  2.7 °C 30.2in /  1022.2hPa SSW 3.1mph /  5.0km/h 4.6mph /  7.4km/h 54% 0in /  0.0mm CLR
03:39 52.9 °F /  11.6 °C 37 °F /  2.8 °C 30.2in /  1022.2hPa SSE 3.1mph /  5.0km/h 5.9mph /  9.5km/h 55% 0in /  0.0mm CLR
03:44 52.5 °F /  11.4 °C 37.2 °F /  2.9 °C 30.2in /  1022.2hPa SSW 3.1mph /  5.0km/h 5.8mph /  9.3km/h 56% 0in /  0.0mm CLR
03:49 52.3 °F /  11.3 °C 37 °F /  2.8 °C 30.2in /  1022.1hPa South 4mph /  6.4km/h 4.7mph /  7.6km/h 56% 0in /  0.0mm CLR
03:54 52.2 °F /  11.2 °C 37.4 °F /  3.0 °C 30.2in /  1022.1hPa SSE 4mph /  6.4km/h 5.8mph /  9.3km/h 57% 0in /  0.0mm CLR
03:59 51.6 °F /  10.9 °C 37.2 °F /  2.9 °C 30.2in /  1022.1hPa South 4.3mph /  6.9km/h 5.9mph /  9.5km/h 58% 0in /  0.0mm CLR
04:04 51.3 °F /  10.7 °C 37.4 °F /  3.0 °C 30.2in /  1022.0hPa South 4.3mph /  6.9km/h 6.9mph /  11.1km/h 59% 0in /  0.0mm CLR
04:09 51.1 °F /  10.6 °C 37.2 °F /  2.9 °C 30.2in /  1022.0hPa SSW 5.2mph /  8.4km/h 6.9mph /  11.1km/h 59% 0in /  0.0mm CLR
04:14 51.1 °F /  10.6 °C 37.2 °F /  2.9 °C 30.2in /  1022.0hPa SW 5.2mph /  8.4km/h 4.6mph /  7.4km/h 59% 0in /  0.0mm CLR
04:19 51.3 °F /  10.7 °C 37 °F /  2.8 °C 30.2in /  1021.9hPa SW 4.3mph /  6.9km/h 4.6mph /  7.4km/h 58% 0in /  0.0mm CLR
04:24 51.6 °F /  10.9 °C 37.2 °F /  2.9 °C 30.2in /  1021.9hPa SW 4.3mph /  6.9km/h 4.6mph /  7.4km/h 58% 0in /  0.0mm CLR
04:29 52 °F /  11.1 °C 36.9 °F /  2.7 °C 30.2in /  1021.9hPa SW 3.6mph /  5.8km/h 5.8mph /  9.3km/h 56% 0in /  0.0mm CLR
04:34 52.2 °F /  11.2 °C 36.5 °F /  2.5 °C 30.2in /  1021.9hPa South 3.6mph /  5.8km/h 4.6mph /  7.4km/h 55% 0in /  0.0mm CLR
04:39 52.3 °F /  11.3 °C 36.7 °F /  2.6 °C 30.2in /  1021.9hPa SW 3.6mph /  5.8km/h 4.6mph /  7.4km/h 55% 0in /  0.0mm CLR
04:44 52.3 °F /  11.3 °C 36.1 °F /  2.3 °C 30.2in /  1021.9hPa South 3.6mph /  5.8km/h 5.8mph /  9.3km/h 54% 0in /  0.0mm CLR
04:49 52.2 °F /  11.2 °C 36 °F /  2.2 °C 30.2in /  1021.9hPa SSE 4mph /  6.4km/h 5.8mph /  9.3km/h 54% 0in /  0.0mm CLR
04:54 51.6 °F /  10.9 °C 36.9 °F /  2.7 °C 30.2in /  1021.9hPa SSE 4mph /  6.4km/h 6.9mph /  11.1km/h 57% 0in /  0.0mm CLR
04:59 50.7 °F /  10.4 °C 36.9 °F /  2.7 °C 30.2in /  1021.9hPa SSE 4mph /  6.4km/h 5.8mph /  9.3km/h 59% 0in /  0.0mm CLR
05:04 50.2 °F /  10.1 °C 36.9 °F /  2.7 °C 30.2in /  1021.8hPa SSE 4mph /  6.4km/h 6.9mph /  11.1km/h 60% 0in /  0.0mm CLR
05:09 49.6 °F /  9.8 °C 36.7 °F /  2.6 °C 30.2in /  1021.8hPa South 5.2mph /  8.4km/h 6.9mph /  11.1km/h 61% 0in /  0.0mm CLR
05:14 49.6 °F /  9.8 °C 36.7 °F /  2.6 °C 30.2in /  1021.8hPa South 5.2mph /  8.4km/h 6.9mph /  11.1km/h 61% 0in /  0.0mm CLR
05:19 49.8 °F /  9.9 °C 36.5 °F /  2.5 °C 30.2in /  1021.8hPa South 4.3mph /  6.9km/h 4.6mph /  7.4km/h 60% 0in /  0.0mm CLR
05:24 50 °F /  10.0 °C 36.7 °F /  2.6 °C 30.2in /  1021.8hPa SSW 4.3mph /  6.9km/h 4.6mph /  7.4km/h 60% 0in /  0.0mm CLR
05:29 50.2 °F /  10.1 °C 36.3 °F /  2.4 °C 30.2in /  1021.8hPa SSE 3.1mph /  5.0km/h 4.6mph /  7.4km/h 59% 0in /  0.0mm CLR
05:34 50.4 °F /  10.2 °C 36.7 °F /  2.6 °C 30.2in /  1021.8hPa SSE 3.1mph /  5.0km/h 4.6mph /  7.4km/h 59% 0in /  0.0mm CLR
05:39 50.4 °F /  10.2 °C 36.7 °F /  2.6 °C 30.2in /  1021.8hPa South 3.1mph /  5.0km/h 5.2mph /  8.4km/h 59% 0in /  0.0mm CLR
05:44 50.4 °F /  10.2 °C 36.7 °F /  2.6 °C 30.2in /  1021.8hPa South 3.1mph /  5.0km/h 3.6mph /  5.8km/h 59% 0in /  0.0mm CLR
05:49 50.4 °F /  10.2 °C 36.7 °F /  2.6 °C 30.2in /  1021.8hPa South 3.1mph /  5.0km/h 4.6mph /  7.4km/h 59% 0in /  0.0mm CLR
05:54 50.2 °F /  10.1 °C 36.3 °F /  2.4 °C 30.2in /  1021.8hPa South 3.1mph /  5.0km/h 4.6mph /  7.4km/h 59% 0in /  0.0mm CLR
05:59 49.8 °F /  9.9 °C 36.5 °F /  2.5 °C 30.2in /  1021.8hPa SSE 3.1mph /  5.0km/h 5.8mph /  9.3km/h 60% 0in /  0.0mm CLR
06:04 49.5 °F /  9.7 °C 36.7 °F /  2.6 °C 30.2in /  1021.9hPa South 3.1mph /  5.0km/h 4.6mph /  7.4km/h 61% 0in /  0.0mm CLR
06:09 49.1 °F /  9.5 °C 36.7 °F /  2.6 °C 30.2in /  1021.9hPa South 4mph /  6.4km/h 4.6mph /  7.4km/h 62% 0in /  0.0mm CLR
06:14 48.9 °F /  9.4 °C 36.5 °F /  2.5 °C 30.2in /  1021.9hPa South 4mph /  6.4km/h 5.8mph /  9.3km/h 62% 0in /  0.0mm CLR
06:19 48.9 °F /  9.4 °C 36.1 °F /  2.3 °C 30.2in /  1022.0hPa South 4.3mph /  6.9km/h 5.8mph /  9.3km/h 61% 0in /  0.0mm CLR
06:24 48.9 °F /  9.4 °C 36.1 °F /  2.3 °C 30.2in /  1022.0hPa SSW 4.3mph /  6.9km/h 5.8mph /  9.3km/h 61% 0in /  0.0mm CLR
06:29 49.1 °F /  9.5 °C 36.1 °F /  2.3 °C 30.2in /  1022.0hPa SSW 3.6mph /  5.8km/h 5.2mph /  8.4km/h 61% 0in /  0.0mm CLR
06:34 49.3 °F /  9.6 °C 36 °F /  2.2 °C 30.2in /  1022.1hPa SSW 3.6mph /  5.8km/h 5.8mph /  9.3km/h 60% 0in /  0.0mm CLR
06:39 49.5 °F /  9.7 °C 36.1 °F /  2.3 °C 30.2in /  1022.1hPa South 4mph /  6.4km/h 4.6mph /  7.4km/h 60% 0in /  0.0mm CLR
06:44 49.5 °F /  9.7 °C 36.1 °F /  2.3 °C 30.2in /  1022.1hPa South 4mph /  6.4km/h 5.8mph /  9.3km/h 60% 0in /  0.0mm CLR
06:49 49.6 °F /  9.8 °C 36 °F /  2.2 °C 30.2in /  1022.2hPa SSW 4.3mph /  6.9km/h 6.9mph /  11.1km/h 59% 0in /  0.0mm CLR
06:54 49.6 °F /  9.8 °C 36 °F /  2.2 °C 30.2in /  1022.2hPa South 4.3mph /  6.9km/h 6.2mph /  10.0km/h 59% 0in /  0.0mm CLR
06:59 49.6 °F /  9.8 °C 36 °F /  2.2 °C 30.2in /  1022.2hPa South 4.7mph /  7.6km/h 5.8mph /  9.3km/h 59% 0in /  0.0mm CLR
07:04 49.6 °F /  9.8 °C 36 °F /  2.2 °C 30.2in /  1022.3hPa South 4.7mph /  7.6km/h 6.9mph /  11.1km/h 59% 0in /  0.0mm CLR
07:09 49.5 °F /  9.7 °C 35.8 °F /  2.1 °C 30.2in /  1022.3hPa NNE 4.7mph /  7.6km/h 4.6mph /  7.4km/h 59% 0in /  0.0mm CLR
07:14 48.6 °F /  9.2 °C 36.1 °F /  2.3 °C 30.2in /  1022.3hPa NNE 4.7mph /  7.6km/h 4.7mph /  7.6km/h 62% 0in /  0.0mm CLR
07:19 47.8 °F /  8.8 °C 36.1 °F /  2.3 °C 30.2in /  1022.5hPa NE 3.1mph /  5.0km/h 3.5mph /  5.6km/h 64% 0in /  0.0mm CLR
07:24 47.5 °F /  8.6 °C 36.3 °F /  2.4 °C 30.2in /  1022.5hPa NE 3.1mph /  5.0km/h 2.4mph /  3.9km/h 65% 0in /  0.0mm CLR
07:29 47.1 °F /  8.4 °C 36.3 °F /  2.4 °C 30.2in /  1022.5hPa NE 2mph /  3.2km/h 2.3mph /  3.7km/h 66% 0in /  0.0mm CLR
07:34 46.9 °F /  8.3 °C 36.1 °F /  2.3 °C 30.2in /  1022.7hPa NE 2mph /  3.2km/h 2.9mph /  4.7km/h 66% 0in /  0.0mm CLR
07:39 46.9 °F /  8.3 °C 36.5 °F /  2.5 °C 30.2in /  1022.7hPa NE 1.8mph /  2.9km/h 3.5mph /  5.6km/h 67% 0in /  0.0mm CLR
07:44 46.8 °F /  8.2 °C 36.3 °F /  2.4 °C 30.2in /  1022.7hPa NE 1.8mph /  2.9km/h   67% 0in /  0.0mm CLR
07:49 46.8 °F /  8.2 °C 36.9 °F /  2.7 °C 30.2in /  1022.8hPa East 1.8mph /  2.9km/h 4.6mph /  7.4km/h 68% 0in /  0.0mm CLR
07:54 46.8 °F /  8.2 °C 36.9 °F /  2.7 °C 30.2in /  1022.8hPa NNE 1.8mph /  2.9km/h 6.2mph /  10.0km/h 68% 0in /  0.0mm CLR
07:59 46.9 °F /  8.3 °C 36.5 °F /  2.5 °C 30.2in /  1022.8hPa NNW 3.1mph /  5.0km/h 4.6mph /  7.4km/h 67% 0in /  0.0mm CLR
08:04 46.6 °F /  8.1 °C 36.7 °F /  2.6 °C 30.2in /  1023.1hPa NNW 3.1mph /  5.0km/h 3.5mph /  5.6km/h 68% 0in /  0.0mm CLR
08:09 46.6 °F /  8.1 °C 37 °F /  2.8 °C 30.2in /  1023.1hPa NNW 2mph /  3.2km/h   69% 0in /  0.0mm CLR
08:14 46.8 °F /  8.2 °C 37 °F /  2.8 °C 30.2in /  1023.1hPa NNW 2mph /  3.2km/h 2.4mph /  3.9km/h 69% 0in /  0.0mm CLR
08:19 47.1 °F /  8.4 °C 37 °F /  2.8 °C 30.2in /  1023.2hPa NNW 1.4mph /  2.3km/h 2.4mph /  3.9km/h 68% 0in /  0.0mm CLR
08:24 47.3 °F /  8.5 °C 37.2 °F /  2.9 °C 30.2in /  1023.2hPa North 1.4mph /  2.3km/h 3.6mph /  5.8km/h 68% 0in /  0.0mm CLR
08:29 47.5 °F /  8.6 °C 37 °F /  2.8 °C 30.2in /  1023.2hPa North 2mph /  3.2km/h 2.9mph /  4.7km/h 67% 0in /  0.0mm CLR
08:34 47.8 °F /  8.8 °C 37 °F /  2.8 °C 30.2in /  1023.2hPa North 2mph /  3.2km/h 2.4mph /  3.9km/h 66% 0in /  0.0mm CLR
08:39 48.4 °F /  9.1 °C 37.2 °F /  2.9 °C 30.2in /  1023.2hPa North 1.8mph /  2.9km/h   65% 0in /  0.0mm CLR
08:44 48.9 °F /  9.4 °C 37.8 °F /  3.2 °C 30.2in /  1023.2hPa North 1.8mph /  2.9km/h 2.3mph /  3.7km/h 65% 0in /  0.0mm CLR
08:49 49.5 °F /  9.7 °C 37.4 °F /  3.0 °C 30.2in /  1023.4hPa Calm     63% 0in /  0.0mm CLR
08:54 50 °F /  10.0 °C 37.6 °F /  3.1 °C 30.2in /  1023.4hPa Calm   1.4mph /  2.3km/h 62% 0in /  0.0mm CLR
08:59 50.5 °F /  10.3 °C 37.6 °F /  3.1 °C 30.2in /  1023.4hPa Calm   2.3mph /  3.7km/h 61% 0in /  0.0mm CLR
09:04 51.1 °F /  10.6 °C 37.2 °F /  2.9 °C 30.2in /  1023.4hPa Calm   2.3mph /  3.7km/h 59% 0in /  0.0mm CLR
09:09 51.6 °F /  10.9 °C 37.2 °F /  2.9 °C 30.2in /  1023.4hPa North 1.4mph /  2.3km/h 2.3mph /  3.7km/h 58% 0in /  0.0mm CLR
09:14 51.8 °F /  11.0 °C 37.6 °F /  3.1 °C 30.2in /  1023.4hPa North 1.4mph /  2.3km/h   58% 0in /  0.0mm CLR
09:19 52.5 °F /  11.4 °C 37.8 °F /  3.2 °C 30.2in /  1023.4hPa North 1.4mph /  2.3km/h 2.4mph /  3.9km/h 57% 0in /  0.0mm CLR
09:24 53.2 °F /  11.8 °C 37.9 °F /  3.3 °C 30.2in /  1023.4hPa ENE 1.4mph /  2.3km/h 2.3mph /  3.7km/h 56% 0in /  0.0mm CLR
09:29 53.4 °F /  11.9 °C 37.6 °F /  3.1 °C 30.2in /  1023.4hPa ENE 1.8mph /  2.9km/h 1.4mph /  2.3km/h 55% 0in /  0.0mm CLR
09:34 53.8 °F /  12.1 °C 37.9 °F /  3.3 °C 30.2in /  1023.5hPa ENE 1.8mph /  2.9km/h 1.8mph /  2.9km/h 55% 0in /  0.0mm CLR
09:39 53.8 °F /  12.1 °C 37.6 °F /  3.1 °C 30.2in /  1023.5hPa Calm   3.5mph /  5.6km/h 54% 0in /  0.0mm CLR
09:44 54 °F /  12.2 °C 38.1 °F /  3.4 °C 30.2in /  1023.5hPa Calm     55% 0in /  0.0mm CLR
09:49 54.9 °F /  12.7 °C 38.5 °F /  3.6 °C 30.2in /  1023.5hPa NNW 1.4mph /  2.3km/h   54% 0in /  0.0mm CLR
09:54 55.8 °F /  13.2 °C 38.5 °F /  3.6 °C 30.2in /  1023.5hPa ESE 1.4mph /  2.3km/h 2.9mph /  4.7km/h 52% 0in /  0.0mm CLR
09:59 56.1 °F /  13.4 °C 37.2 °F /  2.9 °C 30.2in /  1023.5hPa ESE 1.4mph /  2.3km/h 2.3mph /  3.7km/h 49% 0in /  0.0mm CLR
10:04 56.5 °F /  13.6 °C 37 °F /  2.8 °C 30.2in /  1023.5hPa ESE 1.4mph /  2.3km/h 2.3mph /  3.7km/h 48% 0in /  0.0mm CLR
10:09 56.7 °F /  13.7 °C 37.2 °F /  2.9 °C 30.2in /  1023.5hPa ESE 1.4mph /  2.3km/h   48% 0in /  0.0mm CLR
10:14 57 °F /  13.9 °C 37.6 °F /  3.1 °C 30.2in /  1023.5hPa ESE 1.4mph /  2.3km/h 2.3mph /  3.7km/h 48% 0in /  0.0mm CLR
10:19 57.9 °F /  14.4 °C 37.8 °F /  3.2 °C 30.2in /  1023.4hPa Calm   4.6mph /  7.4km/h 47% 0in /  0.0mm CLR
10:24 58.3 °F /  14.6 °C 37.6 °F /  3.1 °C 30.2in /  1023.4hPa Calm   4.6mph /  7.4km/h 46% 0in /  0.0mm CLR
10:29 58.5 °F /  14.7 °C 38.3 °F /  3.5 °C 30.2in /  1023.4hPa SE 2.9mph /  4.7km/h 2.3mph /  3.7km/h 47% 0in /  0.0mm CLR
10:34 58.8 °F /  14.9 °C 38.1 °F /  3.4 °C 30.2in /  1023.5hPa SE 2.9mph /  4.7km/h 4.6mph /  7.4km/h 46% 0in /  0.0mm CLR
10:39 59.4 °F /  15.2 °C 37.4 °F /  3.0 °C 30.2in /  1023.5hPa SE 2.4mph /  3.9km/h 2.9mph /  4.7km/h 44% 0in /  0.0mm CLR
10:44 60.1 °F /  15.6 °C 38.1 °F /  3.4 °C 30.2in /  1023.5hPa SE 2.4mph /  3.9km/h 3.1mph /  5.0km/h 44% 0in /  0.0mm CLR
10:49 60.4 °F /  15.8 °C 37.8 °F /  3.2 °C 30.2in /  1023.4hPa SSW 2mph /  3.2km/h 4.6mph /  7.4km/h 43% 0in /  0.0mm CLR
10:54 60.6 °F /  15.9 °C 37.4 °F /  3.0 °C 30.2in /  1023.4hPa SSW 2mph /  3.2km/h 2.3mph /  3.7km/h 42% 0in /  0.0mm CLR
10:59 61.2 °F /  16.2 °C 38.5 °F /  3.6 °C 30.2in /  1023.4hPa NNE 1.8mph /  2.9km/h 3.5mph /  5.6km/h 43% 0in /  0.0mm CLR
11:04 61.3 °F /  16.3 °C 38.7 °F /  3.7 °C 30.2in /  1023.2hPa NNW 1.8mph /  2.9km/h 3.5mph /  5.6km/h 43% 0in /  0.0mm CLR
11:09 61.5 °F /  16.4 °C 38.8 °F /  3.8 °C 30.2in /  1023.2hPa NW 1.8mph /  2.9km/h 2mph /  3.2km/h 43% 0in /  0.0mm CLR
11:14 62.1 °F /  16.7 °C 39.4 °F /  4.1 °C 30.2in /  1023.2hPa NNW 1.8mph /  2.9km/h 3.6mph /  5.8km/h 43% 0in /  0.0mm CLR
11:19 62.2 °F /  16.8 °C 39.6 °F /  4.2 °C 30.2in /  1023.2hPa North 1.8mph /  2.9km/h 2.3mph /  3.7km/h 43% 0in /  0.0mm CLR
11:24 62.4 °F /  16.9 °C 39.6 °F /  4.2 °C 30.2in /  1023.2hPa North 1.8mph /  2.9km/h   43% 0in /  0.0mm CLR
11:29 63 °F /  17.2 °C 40.1 °F /  4.5 °C 30.2in /  1023.2hPa Calm   2.3mph /  3.7km/h 43% 0in /  0.0mm CLR
11:34 63.3 °F /  17.4 °C 39.7 °F /  4.3 °C 30.2in /  1023.0hPa Calm     42% 0in /  0.0mm CLR
11:39 63.7 °F /  17.6 °C 39.6 °F /  4.2 °C 30.2in /  1023.0hPa NNW 1.4mph /  2.3km/h   41% 0in /  0.0mm CLR
11:44 64 °F /  17.8 °C 40.5 °F /  4.7 °C 30.2in /  1023.0hPa NW 1.4mph /  2.3km/h 2.3mph /  3.7km/h 42% 0in /  0.0mm CLR
11:49 64.2 °F /  17.9 °C 39.9 °F /  4.4 °C 30.2in /  1022.8hPa NW 1.4mph /  2.3km/h 3.5mph /  5.6km/h 41% 0in /  0.0mm CLR
11:54 64.6 °F /  18.1 °C 39.7 °F /  4.3 °C 30.2in /  1022.8hPa NW 1.4mph /  2.3km/h 1.2mph /  1.9km/h 40% 0in /  0.0mm CLR
11:59 65.5 °F /  18.6 °C 39.9 °F /  4.4 °C 30.2in /  1022.8hPa Calm   2.4mph /  3.9km/h 39% 0in /  0.0mm CLR
12:04 65.8 °F /  18.8 °C 40.8 °F /  4.9 °C 30.2in /  1022.6hPa Calm   4.6mph /  7.4km/h 40% 0in /  0.0mm CLR
12:09 66 °F /  18.9 °C 40.3 °F /  4.6 °C 30.2in /  1022.6hPa WNW 1.4mph /  2.3km/h 3.5mph /  5.6km/h 39% 0in /  0.0mm CLR
12:14 66 °F /  18.9 °C 40.3 °F /  4.6 °C 30.2in /  1022.6hPa WSW 1.4mph /  2.3km/h 4.3mph /  6.9km/h 39% 0in /  0.0mm CLR
12:19 65.8 °F /  18.8 °C 40.3 °F /  4.6 °C 30.2in /  1022.4hPa SW 2.4mph /  3.9km/h 4.6mph /  7.4km/h 39% 0in /  0.0mm CLR
12:24 65.8 °F /  18.8 °C 41.5 °F /  5.3 °C 30.2in /  1022.4hPa NNW 2.4mph /  3.9km/h 4.6mph /  7.4km/h 41% 0in /  0.0mm CLR
12:29 66 °F /  18.9 °C 41 °F /  5.0 °C 30.2in /  1022.4hPa NNW 2.4mph /  3.9km/h 1.8mph /  2.9km/h 40% 0in /  0.0mm CLR
12:34 66.6 °F /  19.2 °C 40.8 °F /  4.9 °C 30.2in /  1022.1hPa NNW 2.4mph /  3.9km/h   39% 0in /  0.0mm CLR
12:39 67.3 °F /  19.6 °C 40.1 °F /  4.5 °C 30.2in /  1022.1hPa SSW 1.4mph /  2.3km/h 5.8mph /  9.3km/h 37% 0in /  0.0mm CLR
12:44 67.5 °F /  19.7 °C 40.3 °F /  4.6 °C 30.2in /  1022.1hPa ESE 1.4mph /  2.3km/h 4.6mph /  7.4km/h 37% 0in /  0.0mm CLR
12:49 67.8 °F /  19.9 °C 39.9 °F /  4.4 °C 30.2in /  1021.8hPa NNE 2.9mph /  4.7km/h 3.5mph /  5.6km/h 36% 0in /  0.0mm CLR
12:54 68.2 °F /  20.1 °C 40.3 °F /  4.6 °C 30.2in /  1021.8hPa NE 2.9mph /  4.7km/h 2.9mph /  4.7km/h 36% 0in /  0.0mm CLR
12:59 68.7 °F /  20.4 °C 39.2 °F /  4.0 °C 30.2in /  1021.8hPa NE 1.8mph /  2.9km/h   34% 0in /  0.0mm CLR
13:04 69.3 °F /  20.7 °C 39.7 °F /  4.3 °C 30.2in /  1021.6hPa NNW 1.8mph /  2.9km/h 4.6mph /  7.4km/h 34% 0in /  0.0mm CLR
13:09 69.4 °F /  20.8 °C 39 °F /  3.9 °C 30.2in /  1021.6hPa NE 1.8mph /  2.9km/h 3.1mph /  5.0km/h 33% 0in /  0.0mm CLR
13:14 69.6 °F /  20.9 °C 38.5 °F /  3.6 °C 30.2in /  1021.6hPa NE 1.8mph /  2.9km/h 4.6mph /  7.4km/h 32% 0in /  0.0mm CLR
13:19 69.6 °F /  20.9 °C 38.5 °F /  3.6 °C 30.2in /  1021.3hPa ENE 2mph /  3.2km/h 4.6mph /  7.4km/h 32% 0in /  0.0mm CLR
13:24 69.4 °F /  20.8 °C 37.6 °F /  3.1 °C 30.2in /  1021.3hPa ENE 2mph /  3.2km/h 4.6mph /  7.4km/h 31% 0in /  0.0mm CLR
13:29 69.6 °F /  20.9 °C 38.5 °F /  3.6 °C 30.2in /  1021.3hPa ENE 2.4mph /  3.9km/h 3.5mph /  5.6km/h 32% 0in /  0.0mm CLR
13:34 69.8 °F /  21.0 °C 38.7 °F /  3.7 °C 30.2in /  1021.0hPa NE 2.4mph /  3.9km/h 2.3mph /  3.7km/h 32% 0in /  0.0mm CLR
13:39 70.3 °F /  21.3 °C 35.8 °F /  2.1 °C 30.2in /  1021.0hPa ESE 1.8mph /  2.9km/h 4.6mph /  7.4km/h 28% 0in /  0.0mm CLR
13:44 70.7 °F /  21.5 °C 36 °F /  2.2 °C 30.2in /  1021.0hPa ESE 1.8mph /  2.9km/h 2.3mph /  3.7km/h 28% 0in /  0.0mm CLR
13:49 71.4 °F /  21.9 °C 36.7 °F /  2.6 °C 30.1in /  1020.7hPa ESE 2mph /  3.2km/h 2.3mph /  3.7km/h 28% 0in /  0.0mm CLR
13:54 72.1 °F /  22.3 °C 37.2 °F /  2.9 °C 30.1in /  1020.7hPa ESE 2mph /  3.2km/h 2.3mph /  3.7km/h 28% 0in /  0.0mm CLR
13:59 72.7 °F /  22.6 °C 36.9 °F /  2.7 °C 30.1in /  1020.7hPa South 1.8mph /  2.9km/h 4.3mph /  6.9km/h 27% 0in /  0.0mm CLR
14:04 72.3 °F /  22.4 °C 36.3 °F /  2.4 °C 30.1in /  1020.4hPa ESE 1.8mph /  2.9km/h 4.6mph /  7.4km/h 27% 0in /  0.0mm CLR
14:09 72.3 °F /  22.4 °C 36.3 °F /  2.4 °C 30.1in /  1020.4hPa WSW 2mph /  3.2km/h 4.6mph /  7.4km/h 27% 0in /  0.0mm CLR
14:14 72.7 °F /  22.6 °C 37.8 °F /  3.2 °C 30.1in /  1020.4hPa SW 2mph /  3.2km/h 4.6mph /  7.4km/h 28% 0in /  0.0mm CLR
14:19 72.3 °F /  22.4 °C 37.4 °F /  3.0 °C 30.1in /  1020.1hPa ESE 2.9mph /  4.7km/h 5.8mph /  9.3km/h 28% 0in /  0.0mm CLR
14:24 72.1 °F /  22.3 °C 37.2 °F /  2.9 °C 30.1in /  1020.1hPa NE 2.9mph /  4.7km/h 2.9mph /  4.7km/h 28% 0in /  0.0mm CLR
14:29 72.3 °F /  22.4 °C 38.3 °F /  3.5 °C 30.1in /  1020.1hPa ENE 2.9mph /  4.7km/h 4.3mph /  6.9km/h 29% 0in /  0.0mm CLR
14:34 72.3 °F /  22.4 °C 38.3 °F /  3.5 °C 30.1in /  1019.8hPa NE 2.9mph /  4.7km/h 3.5mph /  5.6km/h 29% 0in /  0.0mm CLR
14:39 72.7 °F /  22.6 °C 37.8 °F /  3.2 °C 30.1in /  1019.8hPa ENE 2mph /  3.2km/h 2.3mph /  3.7km/h 28% 0in /  0.0mm CLR
14:44 72.9 °F /  22.7 °C 37.8 °F /  3.2 °C 30.1in /  1019.8hPa ENE 2mph /  3.2km/h 2.4mph /  3.9km/h 28% 0in /  0.0mm CLR
14:49 73 °F /  22.8 °C 37.9 °F /  3.3 °C 30.1in /  1019.5hPa NNW 1.8mph /  2.9km/h 5.4mph /  8.7km/h 28% 0in /  0.0mm CLR
14:53 72.9 °F /  22.7 °C 38.7 °F /  3.7 °C 30.1in /  1019.5hPa NNW 1.8mph /  2.9km/h 5.8mph /  9.3km/h 29% 0in /  0.0mm CLR
14:59 72.9 °F /  22.7 °C 38.7 °F /  3.7 °C 30.1in /  1019.5hPa ENE 3.6mph /  5.8km/h 3.5mph /  5.6km/h 29% 0in /  0.0mm CLR
15:04 72.9 °F /  22.7 °C 37.8 °F /  3.2 °C 30.1in /  1019.3hPa ENE 3.6mph /  5.8km/h 4.6mph /  7.4km/h 28% 0in /  0.0mm CLR
15:09 73 °F /  22.8 °C 37.9 °F /  3.3 °C 30.1in /  1019.3hPa ENE 2.4mph /  3.9km/h 2.3mph /  3.7km/h 28% 0in /  0.0mm CLR
15:14 73.6 °F /  23.1 °C 38.5 °F /  3.6 °C 30.1in /  1019.3hPa ENE 2.4mph /  3.9km/h 3.5mph /  5.6km/h 28% 0in /  0.0mm CLR
15:19 73.9 °F /  23.3 °C 37.8 °F /  3.2 °C 30.1in /  1019.1hPa Calm   4.6mph /  7.4km/h 27% 0in /  0.0mm CLR
15:24 74.1 °F /  23.4 °C 37.9 °F /  3.3 °C 30.1in /  1019.1hPa Calm   6.2mph /  10.0km/h 27% 0in /  0.0mm CLR
15:29 73.8 °F /  23.2 °C 38.7 °F /  3.7 °C 30.1in /  1019.1hPa NE 2.9mph /  4.7km/h 5.8mph /  9.3km/h 28% 0in /  0.0mm CLR
15:34 73.8 °F /  23.2 °C 38.7 °F /  3.7 °C 30.1in /  1019.0hPa ENE 2.9mph /  4.7km/h 6.9mph /  11.1km/h 28% 0in /  0.0mm CLR
15:39 73.6 °F /  23.1 °C 38.5 °F /  3.6 °C 30.1in /  1019.0hPa ENE 3.6mph /  5.8km/h 3.5mph /  5.6km/h 28% 0in /  0.0mm CLR
15:44 73.9 °F /  23.3 °C 38.8 °F /  3.8 °C 30.1in /  1019.0hPa South 3.6mph /  5.8km/h 4mph /  6.4km/h 28% 0in /  0.0mm CLR
15:49 74.3 °F /  23.5 °C 40.8 °F /  4.9 °C 30.1in /  1018.9hPa SE 2.4mph /  3.9km/h 6.4mph /  10.3km/h 30% 0in /  0.0mm CLR
15:54 73.9 °F /  23.3 °C 42.3 °F /  5.7 °C 30.1in /  1018.9hPa SE 2.4mph /  3.9km/h 10.4mph /  16.7km/h 32% 0in /  0.0mm CLR
15:59 73.6 °F /  23.1 °C 42.6 °F /  5.9 °C 30.1in /  1018.9hPa ENE 6.2mph /  10.0km/h 9.2mph /  14.8km/h 33% 0in /  0.0mm CLR
16:04 73 °F /  22.8 °C 43.9 °F /  6.6 °C 30.1in /  1018.8hPa ESE 6.2mph /  10.0km/h 9.7mph /  15.6km/h 35% 0in /  0.0mm CLR
16:09 72.7 °F /  22.6 °C 45 °F /  7.2 °C 30.1in /  1018.8hPa ESE 7.4mph /  11.9km/h 11.5mph /  18.5km/h 37% 0in /  0.0mm CLR
16:14 72.1 °F /  22.3 °C 44.4 °F /  6.9 °C 30.1in /  1018.8hPa ESE 7.4mph /  11.9km/h 10.4mph /  16.7km/h 37% 0in /  0.0mm CLR
16:19 71.8 °F /  22.1 °C 45.5 °F /  7.5 °C 30.1in /  1018.8hPa ESE 7.6mph /  12.2km/h 10.4mph /  16.7km/h 39% 0in /  0.0mm CLR
16:24 71.2 °F /  21.8 °C 45.7 °F /  7.6 °C 30.1in /  1018.8hPa SE 7.6mph /  12.2km/h 10.4mph /  16.7km/h 40% 0in /  0.0mm CLR
16:29 70.9 °F /  21.6 °C 45.3 °F /  7.4 °C 30.1in /  1018.8hPa ESE 7.4mph /  11.9km/h 13.8mph /  22.2km/h 40% 0in /  0.0mm CLR
16:34 70.2 °F /  21.2 °C 45.3 °F /  7.4 °C 30.1in /  1018.9hPa ESE 7.4mph /  11.9km/h 11.5mph /  18.5km/h 41% 0in /  0.0mm CLR
16:39 69.8 °F /  21.0 °C 45.7 °F /  7.6 °C 30.1in /  1018.9hPa ESE 9.2mph /  14.8km/h 11.5mph /  18.5km/h 42% 0in /  0.0mm CLR
16:44 69.6 °F /  20.9 °C 45.5 °F /  7.5 °C 30.1in /  1018.9hPa ESE 9.2mph /  14.8km/h 10.4mph /  16.7km/h 42% 0in /  0.0mm CLR
16:49 69.4 °F /  20.8 °C 45.3 °F /  7.4 °C 30.1in /  1018.8hPa SE 8.1mph /  13.0km/h 11.2mph /  18.0km/h 42% 0in /  0.0mm CLR
16:54 69.4 °F /  20.8 °C 45.3 °F /  7.4 °C 30.1in /  1018.8hPa East 8.1mph /  13.0km/h 9.2mph /  14.8km/h 42% 0in /  0.0mm CLR
16:59 69.3 °F /  20.7 °C 45.1 °F /  7.3 °C 30.1in /  1018.8hPa SE 6.4mph /  10.3km/h 10.4mph /  16.7km/h 42% 0in /  0.0mm CLR
17:04 68.9 °F /  20.5 °C 45.5 °F /  7.5 °C 30.1in /  1018.8hPa ESE 6.4mph /  10.3km/h 10.4mph /  16.7km/h 43% 0in /  0.0mm CLR
17:09 68.7 °F /  20.4 °C 45.3 °F /  7.4 °C 30.1in /  1018.8hPa ENE 6.9mph /  11.1km/h 8.1mph /  13.0km/h 43% 0in /  0.0mm CLR
17:14 68.5 °F /  20.3 °C 45.9 °F /  7.7 °C 30.1in /  1018.8hPa ESE 6.9mph /  11.1km/h 10mph /  16.1km/h 44% 0in /  0.0mm CLR
17:19 68.5 °F /  20.3 °C 45.9 °F /  7.7 °C 30.1in /  1018.8hPa East 5.4mph /  8.7km/h 8.1mph /  13.0km/h 44% 0in /  0.0mm CLR
17:24 68.4 °F /  20.2 °C 46.2 °F /  7.9 °C 30.1in /  1018.8hPa ENE 5.4mph /  8.7km/h 6.9mph /  11.1km/h 45% 0in /  0.0mm CLR
17:29 68 °F /  20.0 °C 46.4 °F /  8.0 °C 30.1in /  1018.8hPa East 5.2mph /  8.4km/h 6.9mph /  11.1km/h 46% 0in /  0.0mm CLR
17:34 67.6 °F /  19.8 °C 46 °F /  7.8 °C 30.1in /  1018.8hPa ESE 5.2mph /  8.4km/h 10.4mph /  16.7km/h 46% 0in /  0.0mm CLR
17:39 67.6 °F /  19.8 °C 46.8 °F /  8.2 °C 30.1in /  1018.8hPa ESE 6.2mph /  10.0km/h 8.5mph /  13.7km/h 47% 0in /  0.0mm CLR
17:44 67.8 °F /  19.9 °C 46.8 °F /  8.2 °C 30.1in /  1018.8hPa ESE 6.2mph /  10.0km/h 5.8mph /  9.3km/h 47% 0in /  0.0mm CLR
17:49 67.6 °F /  19.8 °C 47.1 °F /  8.4 °C 30.1in /  1018.8hPa North 4.3mph /  6.9km/h 4.6mph /  7.4km/h 48% 0in /  0.0mm CLR
17:54 67.6 °F /  19.8 °C 47.1 °F /  8.4 °C 30.1in /  1018.8hPa NNE 4.3mph /  6.9km/h 7.4mph /  11.9km/h 48% 0in /  0.0mm CLR
17:59 67.5 °F /  19.7 °C 47.1 °F /  8.4 °C 30.1in /  1018.8hPa NE 4.3mph /  6.9km/h 9.2mph /  14.8km/h 48% 0in /  0.0mm CLR
18:04 67.1 °F /  19.5 °C 46.8 °F /  8.2 °C 30.1in /  1018.9hPa NE 4.3mph /  6.9km/h 9.2mph /  14.8km/h 48% 0in /  0.0mm CLR
18:09 66.7 °F /  19.3 °C 46.4 °F /  8.0 °C 30.1in /  1018.9hPa North 6.2mph /  10.0km/h 8.1mph /  13.0km/h 48% 0in /  0.0mm CLR
18:14 66.4 °F /  19.1 °C 46.6 °F /  8.1 °C 30.1in /  1018.9hPa North 6.2mph /  10.0km/h 9.2mph /  14.8km/h 49% 0in /  0.0mm CLR
18:19 65.8 °F /  18.8 °C 46.8 °F /  8.2 °C 30.1in /  1019.0hPa NNE 5.4mph /  8.7km/h 8.5mph /  13.7km/h 50% 0in /  0.0mm CLR
18:24 65.5 °F /  18.6 °C 46.2 °F /  7.9 °C 30.1in /  1019.0hPa North 5.4mph /  8.7km/h 12.7mph /  20.4km/h 50% 0in /  0.0mm CLR
18:29 65.1 °F /  18.4 °C 46.6 °F /  8.1 °C 30.1in /  1019.0hPa NE 6.2mph /  10.0km/h 10.4mph /  16.7km/h 51% 0in /  0.0mm CLR
18:34 64.8 °F /  18.2 °C 46.2 °F /  7.9 °C 30.1in /  1019.1hPa NNE 6.2mph /  10.0km/h 12.5mph /  20.1km/h 51% 0in /  0.0mm CLR
18:39 64.2 °F /  17.9 °C 46.2 °F /  7.9 °C 30.1in /  1019.1hPa NNE 8.1mph /  13.0km/h 13.8mph /  22.2km/h 52% 0in /  0.0mm CLR
18:44 64 °F /  17.8 °C 46.6 °F /  8.1 °C 30.1in /  1019.1hPa NNE 8.1mph /  13.0km/h 10.4mph /  16.7km/h 53% 0in /  0.0mm CLR
18:49 63.7 °F /  17.6 °C 47.7 °F /  8.7 °C 30.1in /  1019.3hPa NNE 7.6mph /  12.2km/h 10.4mph /  16.7km/h 56% 0in /  0.0mm CLR
18:54 63.1 °F /  17.3 °C 48 °F /  8.9 °C 30.1in /  1019.3hPa NE 7.6mph /  12.2km/h 11.5mph /  18.5km/h 58% 0in /  0.0mm CLR
18:59 62.8 °F /  17.1 °C 48.2 °F /  9.0 °C 30.1in /  1019.3hPa NE 7.6mph /  12.2km/h 12.3mph /  19.8km/h 59% 0in /  0.0mm CLR
19:04 62.2 °F /  16.8 °C 48.6 °F /  9.2 °C 30.1in /  1019.5hPa North 7.6mph /  12.2km/h 12.7mph /  20.4km/h 61% 0in /  0.0mm CLR
19:09 61.9 °F /  16.6 °C 48.7 °F /  9.3 °C 30.1in /  1019.5hPa NNE 8.5mph /  13.7km/h 10.4mph /  16.7km/h 62% 0in /  0.0mm CLR
19:14 61.5 °F /  16.4 °C 48.4 °F /  9.1 °C 30.1in /  1019.5hPa NNE 8.5mph /  13.7km/h 12.3mph /  19.8km/h 62% 0in /  0.0mm CLR
19:19 61.2 °F /  16.2 °C 48 °F /  8.9 °C 30.1in /  1019.7hPa NE 7.4mph /  11.9km/h 13.8mph /  22.2km/h 62% 0in /  0.0mm CLR
19:24 61 °F /  16.1 °C 48.4 °F /  9.1 °C 30.1in /  1019.7hPa North 7.4mph /  11.9km/h 12.7mph /  20.4km/h 63% 0in /  0.0mm CLR
19:29 60.6 °F /  15.9 °C 47.8 °F /  8.8 °C 30.1in /  1019.7hPa NNE 8.5mph /  13.7km/h 8.1mph /  13.0km/h 63% 0in /  0.0mm CLR
19:34 60.4 °F /  15.8 °C 47.8 °F /  8.8 °C 30.1in /  1019.8hPa North 8.5mph /  13.7km/h 9.2mph /  14.8km/h 63% 0in /  0.0mm CLR
19:39 60.3 °F /  15.7 °C 47.1 °F /  8.4 °C 30.1in /  1019.8hPa North 6.9mph /  11.1km/h 10.4mph /  16.7km/h 62% 0in /  0.0mm CLR
19:44 60.1 °F /  15.6 °C 46.9 °F /  8.3 °C 30.1in /  1019.8hPa North 6.9mph /  11.1km/h 9.2mph /  14.8km/h 62% 0in /  0.0mm CLR
19:49 59.7 °F /  15.4 °C 47.5 °F /  8.6 °C 30.1in /  1019.9hPa NE 7.4mph /  11.9km/h 12.7mph /  20.4km/h 64% 0in /  0.0mm CLR
19:54 59.5 °F /  15.3 °C 48.6 °F /  9.2 °C 30.1in /  1019.9hPa NNE 7.4mph /  11.9km/h 9.2mph /  14.8km/h 67% 0in /  0.0mm CLR
19:59 59.4 °F /  15.2 °C 49.6 °F /  9.8 °C 30.1in /  1019.9hPa NNW 6.9mph /  11.1km/h 9.2mph /  14.8km/h 70% 0in /  0.0mm CLR
20:04 59.2 °F /  15.1 °C 50.2 °F /  10.1 °C 30.1in /  1020.0hPa NE 6.9mph /  11.1km/h 9.2mph /  14.8km/h 72% 0in /  0.0mm CLR
20:09 58.8 °F /  14.9 °C 50.2 °F /  10.1 °C 30.1in /  1020.0hPa NE 6.2mph /  10.0km/h 10mph /  16.1km/h 73% 0in /  0.0mm CLR
20:14 58.6 °F /  14.8 °C 50.4 °F /  10.2 °C 30.1in /  1020.0hPa NNE 6.2mph /  10.0km/h 10.4mph /  16.7km/h 74% 0in /  0.0mm CLR
20:19 58.5 °F /  14.7 °C 50.5 °F /  10.3 °C 30.1in /  1020.2hPa NE 6.4mph /  10.3km/h 9.7mph /  15.6km/h 75% 0in /  0.0mm CLR
20:24 58.3 °F /  14.6 °C 50.7 °F /  10.4 °C 30.1in /  1020.2hPa NE 6.4mph /  10.3km/h 8.1mph /  13.0km/h 76% 0in /  0.0mm CLR
20:29 58.1 °F /  14.5 °C 50.9 °F /  10.5 °C 30.1in /  1020.2hPa NNE 6.2mph /  10.0km/h 9.2mph /  14.8km/h 77% 0in /  0.0mm CLR
20:34 57.9 °F /  14.4 °C 50.7 °F /  10.4 °C 30.1in /  1020.3hPa NNW 6.2mph /  10.0km/h 6.9mph /  11.1km/h 77% 0in /  0.0mm CLR
20:39 57.7 °F /  14.3 °C 50.9 °F /  10.5 °C 30.1in /  1020.3hPa NNW 4.7mph /  7.6km/h 8.1mph /  13.0km/h 78% 0in /  0.0mm CLR
20:44 57.7 °F /  14.3 °C 50.9 °F /  10.5 °C 30.1in /  1020.3hPa NNW 4.7mph /  7.6km/h 5.9mph /  9.5km/h 78% 0in /  0.0mm CLR
20:49 57.6 °F /  14.2 °C 50.7 °F /  10.4 °C 30.1in /  1020.5hPa NW 4mph /  6.4km/h 6.9mph /  11.1km/h 78% 0in /  0.0mm CLR
20:54 57.4 °F /  14.1 °C 50.9 °F /  10.5 °C 30.1in /  1020.5hPa NNW 4mph /  6.4km/h 4.6mph /  7.4km/h 79% 0in /  0.0mm CLR
20:59 57.4 °F /  14.1 °C 50.9 °F /  10.5 °C 30.1in /  1020.5hPa NW 3.6mph /  5.8km/h 4.6mph /  7.4km/h 79% 0in /  0.0mm CLR
21:04 57.2 °F /  14.0 °C 51.1 °F /  10.6 °C 30.1in /  1020.7hPa NNW 3.6mph /  5.8km/h 4.6mph /  7.4km/h 80% 0in /  0.0mm CLR
21:09 57 °F /  13.9 °C 50.9 °F /  10.5 °C 30.1in /  1020.7hPa NNW 2.9mph /  4.7km/h 3.5mph /  5.6km/h 80% 0in /  0.0mm CLR
21:14 57 °F /  13.9 °C 50.9 °F /  10.5 °C 30.1in /  1020.7hPa ENE 2.9mph /  4.7km/h 2.4mph /  3.9km/h 80% 0in /  0.0mm CLR
21:19 57 °F /  13.9 °C 51.3 °F /  10.7 °C 30.1in /  1020.6hPa North 1.8mph /  2.9km/h 4.6mph /  7.4km/h 81% 0in /  0.0mm CLR
21:24 57 °F /  13.9 °C 51.3 °F /  10.7 °C 30.1in /  1020.6hPa North 1.8mph /  2.9km/h 2.9mph /  4.7km/h 81% 0in /  0.0mm CLR
21:29 57 °F /  13.9 °C 51.3 °F /  10.7 °C 30.1in /  1020.6hPa North 2mph /  3.2km/h   81% 0in /  0.0mm CLR
21:34 57 °F /  13.9 °C 51.3 °F /  10.7 °C 30.1in /  1020.6hPa North 2mph /  3.2km/h   81% 0in /  0.0mm CLR
21:39 57 °F /  13.9 °C 51.3 °F /  10.7 °C 30.1in /  1020.6hPa Calm     81% 0in /  0.0mm CLR
21:44 57 °F /  13.9 °C 51.3 °F /  10.7 °C 30.1in /  1020.6hPa Calm     81% 0in /  0.0mm CLR
21:49 57 °F /  13.9 °C 51.3 °F /  10.7 °C 30.1in /  1020.7hPa Calm   4.6mph /  7.4km/h 81% 0in /  0.0mm CLR
21:54 57 °F /  13.9 °C 51.3 °F /  10.7 °C 30.1in /  1020.7hPa Calm   4.6mph /  7.4km/h 81% 0in /  0.0mm CLR
21:59 57 °F /  13.9 °C 51.3 °F /  10.7 °C 30.1in /  1020.7hPa WNW 2mph /  3.2km/h 3.1mph /  5.0km/h 81% 0in /  0.0mm CLR
22:04 57 °F /  13.9 °C 51.3 °F /  10.7 °C 30.1in /  1020.8hPa WNW 2mph /  3.2km/h 2.3mph /  3.7km/h 81% 0in /  0.0mm CLR
22:09 57 °F /  13.9 °C 51.3 °F /  10.7 °C 30.1in /  1020.8hPa WNW 2mph /  3.2km/h 3.5mph /  5.6km/h 81% 0in /  0.0mm CLR
22:14 57 °F /  13.9 °C 51.3 °F /  10.7 °C 30.1in /  1020.8hPa WNW 2mph /  3.2km/h 4.6mph /  7.4km/h 81% 0in /  0.0mm CLR
22:19 57 °F /  13.9 °C 51.3 °F /  10.7 °C 30.2in /  1020.9hPa WNW 2.9mph /  4.7km/h 4.6mph /  7.4km/h 81% 0in /  0.0mm CLR
22:24 56.8 °F /  13.8 °C 51.1 °F /  10.6 °C 30.2in /  1020.9hPa WNW 2.9mph /  4.7km/h 3.5mph /  5.6km/h 81% 0in /  0.0mm CLR
22:29 56.8 °F /  13.8 °C 51.1 °F /  10.6 °C 30.2in /  1020.9hPa WNW 2.9mph /  4.7km/h 4.6mph /  7.4km/h 81% 0in /  0.0mm CLR
22:34 56.8 °F /  13.8 °C 51.1 °F /  10.6 °C 30.1in /  1020.8hPa West 2.9mph /  4.7km/h 3.5mph /  5.6km/h 81% 0in /  0.0mm CLR
22:39 56.8 °F /  13.8 °C 51.1 °F /  10.6 °C 30.1in /  1020.8hPa West 2.4mph /  3.9km/h 3.1mph /  5.0km/h 81% 0in /  0.0mm CLR
22:44 56.8 °F /  13.8 °C 50.7 °F /  10.4 °C 30.1in /  1020.8hPa West 2.4mph /  3.9km/h 3.6mph /  5.8km/h 80% 0in /  0.0mm CLR
22:49 57 °F /  13.9 °C 50.9 °F /  10.5 °C 30.1in /  1020.7hPa West 1.8mph /  2.9km/h 3.5mph /  5.6km/h 80% 0in /  0.0mm CLR
22:54 57 °F /  13.9 °C 50.9 °F /  10.5 °C 30.1in /  1020.7hPa West 1.8mph /  2.9km/h 3.5mph /  5.6km/h 80% 0in /  0.0mm CLR
22:59 57.2 °F /  14.0 °C 50.7 °F /  10.4 °C 30.1in /  1020.7hPa West 2.4mph /  3.9km/h 3.5mph /  5.6km/h 79% 0in /  0.0mm CLR
23:04 57.4 °F /  14.1 °C 50.5 °F /  10.3 °C 30.1in /  1020.8hPa West 2.4mph /  3.9km/h 3.5mph /  5.6km/h 78% 0in /  0.0mm CLR
23:09 57.2 °F /  14.0 °C 50.2 °F /  10.1 °C 30.1in /  1020.8hPa WSW 2mph /  3.2km/h 4.6mph /  7.4km/h 77% 0in /  0.0mm CLR
23:14 57 °F /  13.9 °C 49.8 °F /  9.9 °C 30.1in /  1020.8hPa WSW 2mph /  3.2km/h 4.6mph /  7.4km/h 77% 0in /  0.0mm CLR
23:19 57 °F /  13.9 °C 49.8 °F /  9.9 °C 30.2in /  1020.9hPa South 3.1mph /  5.0km/h 4.6mph /  7.4km/h 77% 0in /  0.0mm CLR
23:24 56.8 °F /  13.8 °C 49.5 °F /  9.7 °C 30.2in /  1020.9hPa SSW 3.1mph /  5.0km/h 5.8mph /  9.3km/h 76% 0in /  0.0mm CLR
23:29 57 °F /  13.9 °C 49.5 °F /  9.7 °C 30.2in /  1020.9hPa SW 3.6mph /  5.8km/h 4.6mph /  7.4km/h 76% 0in /  0.0mm CLR
23:34 57 °F /  13.9 °C 49.5 °F /  9.7 °C 30.1in /  1020.8hPa SSW 3.6mph /  5.8km/h 5.8mph /  9.3km/h 76% 0in /  0.0mm CLR
23:39 57 °F /  13.9 °C 49.3 °F /  9.6 °C 30.1in /  1020.8hPa SW 4mph /  6.4km/h 5.8mph /  9.3km/h 75% 0in /  0.0mm CLR
23:44 57 °F /  13.9 °C 48.7 °F /  9.3 °C 30.1in /  1020.8hPa South 4mph /  6.4km/h 5.8mph /  9.3km/h 74% 0in /  0.0mm CLR
23:49 57 °F /  13.9 °C 48.7 °F /  9.3 °C 30.1in /  1020.7hPa SSW 4mph /  6.4km/h 5.8mph /  9.3km/h 74% 0in /  0.0mm CLR
23:54 56.8 °F /  13.8 °C 48.4 °F /  9.1 °C 30.1in /  1020.7hPa South 4mph /  6.4km/h 5.8mph /  9.3km/h 73% 0in /  0.0mm CLR
23:59 56.7 °F /  13.7 °C 48 °F /  8.9 °C 30.1in /  1020.7hPa South 4mph /  6.4km/h 5.8mph /  9.3km/h 73% 0in /  0.0mm CLR
Murcia-Puente Tocinos, España
Compliments of Weather Underground - 2.75 mb

La estación de MeteoMurcia.com, publica sus datos en los siguientes proyectos:

Weather Underground PWS IMURCIAP2 Meteoclimatic www.awekas.at

W3Counter
Web Analytics